Delray, Michigan
Current Conditions -  °F | °C
As of 6:00 PM on Wednesday 26 Nov 2014 (Local Time) from CYQG Reporting Station
Snow Showers Snow Showers  
Wind Chill: 26°   Ceiling: 2500
Heat Index: 32°   Visibility: 7mi
Dew Point: 25°   Wind: 7mph
Humidity: 75%   Direction: 360°N
Pressure: 30.09"   Gusts: NA
Location:  42.2774°N, 83.1542°W
Report Text: CYQG 262300Z 36006KT 7SM -SHSN OVC025 00/M04 A3009 RMK SC8 CVCTV CLD ASOCTD SLP196
Loading
Personal Weather Stations






























Interactive Weather Map New forecast layout! Learn more

10-Day Weather Forecast

Advertisements
Track Severe Weather on mobile